sensor_id;sensor_type;location;lat;lon;timestamp;pressure;altitude;pressure_sealevel;temperature;humidity
42725;BME280;28369;44.046;23.014;2023-02-12T00:02:09;101944.53;;;10.58;34.73
42725;BME280;28369;44.046;23.014;2023-02-12T00:04:34;101931.94;;;10.63;34.78
42725;BME280;28369;44.046;23.014;2023-02-12T00:07:00;101930.44;;;10.86;34.15
42725;BME280;28369;44.046;23.014;2023-02-12T00:09:26;101728.63;;;9.51;34.47
42725;BME280;28369;44.046;23.014;2023-02-12T00:11:52;101794.63;;;9.31;34.79
42725;BME280;28369;44.046;23.014;2023-02-12T00:14:17;102275.59;;;13.01;34.16
42725;BME280;28369;44.046;23.014;2023-02-12T00:16:43;101930.69;;;10.96;34.04
42725;BME280;28369;44.046;23.014;2023-02-12T00:19:09;101880.81;;;10.25;33.84
42725;BME280;28369;44.046;23.014;2023-02-12T00:21:35;101977.63;;;11.16;34.21
42725;BME280;28369;44.046;23.014;2023-02-12T00:24:02;101707.72;;;10.06;33.76
42725;BME280;28369;44.046;23.014;2023-02-12T00:26:28;101741.25;;;10.15;33.27
42725;BME280;28369;44.046;23.014;2023-02-12T00:28:54;101764.97;;;9.86;33.93
42725;BME280;28369;44.046;23.014;2023-02-12T00:31:23;101970.34;;;11.47;33.27
42725;BME280;28369;44.046;23.014;2023-02-12T00:33:49;102264.41;;;13.23;33.39
42725;BME280;28369;44.046;23.014;2023-02-12T00:36:18;101690.13;;;9.38;34.07
42725;BME280;28369;44.046;23.014;2023-02-12T00:38:44;101966.28;;;10.74;34.92
42725;BME280;28369;44.046;23.014;2023-02-12T00:41:11;101962.81;;;10.74;34.64
42725;BME280;28369;44.046;23.014;2023-02-12T00:43:37;101974.66;;;11.08;34.35
42725;BME280;28369;44.046;23.014;2023-02-12T00:46:03;101966.34;;;10.87;34.26
42725;BME280;28369;44.046;23.014;2023-02-12T00:48:30;101984.97;;;11.11;34.13
42725;BME280;28369;44.046;23.014;2023-02-12T00:50:55;101788.31;;;9.91;33.82
42725;BME280;28369;44.046;23.014;2023-02-12T00:53:21;101790.94;;;10.33;33.29
42725;BME280;28369;44.046;23.014;2023-02-12T00:55:47;101982.09;;;11.82;32.77
42725;BME280;28369;44.046;23.014;2023-02-12T00:58:13;102088.09;;;12.13;32.56
42725;BME280;28369;44.046;23.014;2023-02-12T01:00:38;102277.41;;;13.52;32.24
42725;BME280;28369;44.046;23.014;2023-02-12T01:03:04;101925.91;;;11.68;32.11
42725;BME280;28369;44.046;23.014;2023-02-12T01:05:31;102248.47;;;13.38;32.62
42725;BME280;28369;44.046;23.014;2023-02-12T01:07:56;101989.75;;;11.46;32.47
42725;BME280;28369;44.046;23.014;2023-02-12T01:12:53;102011.22;;;11.53;32.66
42725;BME280;28369;44.046;23.014;2023-02-12T01:15:19;101783.06;;;10.33;32.63
42725;BME280;28369;44.046;23.014;2023-02-12T01:17:45;101801.06;;;10.53;32.35
42725;BME280;28369;44.046;23.014;2023-02-12T01:20:14;101984.59;;;11.57;32.64
42725;BME280;28369;44.046;23.014;2023-02-12T01:22:42;101957.09;;;11.74;32.28
42725;BME280;28369;44.046;23.014;2023-02-12T01:25:08;102015.22;;;11.46;33.45
42725;BME280;28369;44.046;23.014;2023-02-12T01:27:34;101854.09;;;10.87;33.59
42725;BME280;28369;44.046;23.014;2023-02-12T01:30:00;101660.16;;;9.13;34.41
42725;BME280;28369;44.046;23.014;2023-02-12T01:32:26;101869.63;;;10.50;34.01
42725;BME280;28369;44.046;23.014;2023-02-12T01:34:52;101751.03;;;9.86;34.04
42725;BME280;28369;44.046;23.014;2023-02-12T01:37:17;102245.38;;;12.79;33.98
42725;BME280;28369;44.046;23.014;2023-02-12T01:39:43;101849.72;;;10.46;34.02
42725;BME280;28369;44.046;23.014;2023-02-12T01:42:11;101973.31;;;11.55;34.09
42725;BME280;28369;44.046;23.014;2023-02-12T01:44:43;101725.09;;;9.94;33.96
42725;BME280;28369;44.046;23.014;2023-02-12T01:47:16;101627.09;;;9.10;34.40
42725;BME280;28369;44.046;23.014;2023-02-12T01:49:45;101876.00;;;10.46;34.42
42725;BME280;28369;44.046;23.014;2023-02-12T01:52:20;102207.06;;;12.74;34.15
42725;BME280;28369;44.046;23.014;2023-02-12T01:54:50;101904.47;;;10.40;34.66
42725;BME280;28369;44.046;23.014;2023-02-12T01:57:17;101680.88;;;9.32;34.05
42725;BME280;28369;44.046;23.014;2023-02-12T01:59:44;101794.47;;;10.19;33.78
42725;BME280;28369;44.046;23.014;2023-02-12T02:02:11;102262.91;;;12.81;33.96
42725;BME280;28369;44.046;23.014;2023-02-12T02:04:42;101603.44;;;9.39;33.70
42725;BME280;28369;44.046;23.014;2023-02-12T02:07:09;101687.91;;;9.73;33.96
42725;BME280;28369;44.046;23.014;2023-02-12T02:09:37;101756.50;;;9.96;34.04
42725;BME280;28369;44.046;23.014;2023-02-12T02:12:05;101695.41;;;9.79;33.84
42725;BME280;28369;44.046;23.014;2023-02-12T02:14:51;101960.16;;;11.68;33.21
42725;BME280;28369;44.046;23.014;2023-02-12T02:28:38;101699.31;;;10.14;32.68
42725;BME280;28369;44.046;23.014;2023-02-12T02:31:24;102214.34;;;13.35;32.75
42725;BME280;28369;44.046;23.014;2023-02-12T02:39:22;101732.34;;;9.91;32.52
42725;BME280;28369;44.046;23.014;2023-02-12T02:41:55;101872.13;;;11.19;32.73
42725;BME280;28369;44.046;23.014;2023-02-12T02:44:55;101776.56;;;10.11;32.95
42725;BME280;28369;44.046;23.014;2023-02-12T02:50:11;101784.56;;;10.37;33.01
42725;BME280;28369;44.046;23.014;2023-02-12T02:52:47;102245.50;;;13.42;32.89
42725;BME280;28369;44.046;23.014;2023-02-12T02:55:17;101760.56;;;10.56;32.70
42725;BME280;28369;44.046;23.014;2023-02-12T02:58:00;101708.69;;;9.91;33.10
42725;BME280;28369;44.046;23.014;2023-02-12T03:00:34;101932.50;;;11.35;33.28
42725;BME280;28369;44.046;23.014;2023-02-12T03:03:06;101863.13;;;10.83;32.97
42725;BME280;28369;44.046;23.014;2023-02-12T03:05:39;101683.78;;;10.24;32.70
42725;BME280;28369;44.046;23.014;2023-02-12T03:08:16;102242.03;;;13.16;32.89
42725;BME280;28369;44.046;23.014;2023-02-12T03:10:53;101938.91;;;11.97;32.44
42725;BME280;28369;44.046;23.014;2023-02-12T03:13:34;101819.22;;;10.84;32.60
42725;BME280;28369;44.046;23.014;2023-02-12T03:18:39;101849.00;;;11.63;31.60
42725;BME280;28369;44.046;23.014;2023-02-12T03:21:12;101751.81;;;10.55;31.47
42725;BME280;28369;44.046;23.014;2023-02-12T03:23:56;101771.47;;;11.03;31.11
42725;BME280;28369;44.046;23.014;2023-02-12T03:26:33;101742.72;;;10.34;32.05
42725;BME280;28369;44.046;23.014;2023-02-12T03:29:02;101773.13;;;10.78;31.98
42725;BME280;28369;44.046;23.014;2023-02-12T03:34:28;101721.34;;;10.92;31.56
42725;BME280;28369;44.046;23.014;2023-02-12T03:37:05;101899.88;;;11.76;31.33
42725;BME280;28369;44.046;23.014;2023-02-12T03:39:56;101760.63;;;10.82;31.75
42725;BME280;28369;44.046;23.014;2023-02-12T03:42:38;101715.16;;;11.18;31.64
42725;BME280;28369;44.046;23.014;2023-02-12T03:45:26;101875.75;;;11.83;31.88
42725;BME280;28369;44.046;23.014;2023-02-12T03:53:18;102099.75;;;13.11;32.21
42725;BME280;28369;44.046;23.014;2023-02-12T03:55:47;102042.72;;;12.72;32.33
42725;BME280;28369;44.046;23.014;2023-02-12T03:58:20;101931.69;;;12.38;32.34
42725;BME280;28369;44.046;23.014;2023-02-12T04:00:49;101897.56;;;11.85;32.39
42725;BME280;28369;44.046;23.014;2023-02-12T04:03:15;101764.09;;;10.95;32.41
42725;BME280;28369;44.046;23.014;2023-02-12T04:05:41;102049.19;;;12.68;32.47
42725;BME280;28369;44.046;23.014;2023-02-12T04:08:08;101765.63;;;10.59;32.68
42725;BME280;28369;44.046;23.014;2023-02-12T04:10:45;102037.69;;;12.43;32.80
42725;BME280;28369;44.046;23.014;2023-02-12T04:13:22;101745.28;;;10.48;32.46
42725;BME280;28369;44.046;23.014;2023-02-12T04:16:10;101788.56;;;10.70;32.56
42725;BME280;28369;44.046;23.014;2023-02-12T04:18:43;101721.00;;;10.17;32.36
42725;BME280;28369;44.046;23.014;2023-02-12T04:27:08;101745.56;;;10.71;32.51
42725;BME280;28369;44.046;23.014;2023-02-12T04:32:42;101718.47;;;10.43;32.96
42725;BME280;28369;44.046;23.014;2023-02-12T04:38:18;101671.91;;;10.18;32.79
42725;BME280;28369;44.046;23.014;2023-02-12T04:40:47;101931.34;;;11.39;33.01
42725;BME280;28369;44.046;23.014;2023-02-12T04:43:13;101724.16;;;9.95;33.45
42725;BME280;28369;44.046;23.014;2023-02-12T04:45:39;102014.28;;;12.00;33.22
42725;BME280;28369;44.046;23.014;2023-02-12T04:48:05;101760.22;;;10.20;33.56
42725;BME280;28369;44.046;23.014;2023-02-12T04:50:41;101691.91;;;10.33;32.62
42725;BME280;28369;44.046;23.014;2023-02-12T04:53:08;101979.63;;;11.66;33.43
42725;BME280;28369;44.046;23.014;2023-02-12T04:55:34;101794.72;;;10.29;33.52
42725;BME280;28369;44.046;23.014;2023-02-12T04:58:00;101999.38;;;11.86;33.59
42725;BME280;28369;44.046;23.014;2023-02-12T05:00:26;102005.81;;;11.82;33.51
42725;BME280;28369;44.046;23.014;2023-02-12T05:02:52;102303.06;;;13.50;33.72
42725;BME280;28369;44.046;23.014;2023-02-12T05:05:19;101786.91;;;10.42;33.75
42725;BME280;28369;44.046;23.014;2023-02-12T05:07:45;102318.50;;;13.56;33.65
42725;BME280;28369;44.046;23.014;2023-02-12T05:10:11;101763.44;;;10.79;33.30
42725;BME280;28369;44.046;23.014;2023-02-12T05:12:36;102071.75;;;12.72;33.30
42725;BME280;28369;44.046;23.014;2023-02-12T05:15:02;102115.53;;;12.87;33.15
42725;BME280;28369;44.046;23.014;2023-02-12T05:17:28;101987.38;;;11.82;34.09
42725;BME280;28369;44.046;23.014;2023-02-12T05:19:54;101937.88;;;11.34;33.98
42725;BME280;28369;44.046;23.014;2023-02-12T05:22:20;102300.47;;;13.87;34.21
42725;BME280;28369;44.046;23.014;2023-02-12T05:24:45;101757.66;;;9.92;34.79
42725;BME280;28369;44.046;23.014;2023-02-12T05:27:11;101981.13;;;11.70;34.49
42725;BME280;28369;44.046;23.014;2023-02-12T05:29:37;101821.94;;;10.69;34.65
42725;BME280;28369;44.046;23.014;2023-02-12T05:32:03;101807.72;;;10.03;35.54
42725;BME280;28369;44.046;23.014;2023-02-12T05:34:29;101903.97;;;10.89;35.25
42725;BME280;28369;44.046;23.014;2023-02-12T05:36:55;102286.16;;;13.53;35.23
42725;BME280;28369;44.046;23.014;2023-02-12T05:39:21;101750.28;;;10.11;35.39
42725;BME280;28369;44.046;23.014;2023-02-12T05:41:47;102310.88;;;13.52;35.23
42725;BME280;28369;44.046;23.014;2023-02-12T05:44:12;102132.00;;;12.39;35.49
42725;BME280;28369;44.046;23.014;2023-02-12T05:46:40;102141.09;;;11.68;36.19
42725;BME280;28369;44.046;23.014;2023-02-12T05:49:06;101799.47;;;10.09;35.77
42725;BME280;28369;44.046;23.014;2023-02-12T05:51:32;102042.03;;;11.65;36.04
42725;BME280;28369;44.046;23.014;2023-02-12T05:54:02;101822.19;;;9.96;36.20
42725;BME280;28369;44.046;23.014;2023-02-12T05:56:30;102184.13;;;12.61;35.93
42725;BME280;28369;44.046;23.014;2023-02-12T05:59:05;102424.59;;;14.02;35.43
42725;BME280;28369;44.046;23.014;2023-02-12T06:04:02;101841.88;;;10.59;34.86
42725;BME280;28369;44.046;23.014;2023-02-12T06:06:29;101910.00;;;11.04;35.19
42725;BME280;28369;44.046;23.014;2023-02-12T06:08:55;101871.22;;;10.80;34.83
42725;BME280;28369;44.046;23.014;2023-02-12T06:11:21;102204.53;;;12.98;34.71
42725;BME280;28369;44.046;23.014;2023-02-12T06:13:47;102389.44;;;14.25;34.96
42725;BME280;28369;44.046;23.014;2023-02-12T06:16:21;101861.94;;;11.15;34.64
42725;BME280;28369;44.046;23.014;2023-02-12T06:18:47;102418.91;;;14.08;35.01
42725;BME280;28369;44.046;23.014;2023-02-12T06:21:14;101866.56;;;11.24;34.56
42725;BME280;28369;44.046;23.014;2023-02-12T06:23:40;101826.94;;;11.00;34.53
42725;BME280;28369;44.046;23.014;2023-02-12T06:26:06;101877.50;;;11.18;34.35
42725;BME280;28369;44.046;23.014;2023-02-12T06:28:32;101884.25;;;11.09;35.07
42725;BME280;28369;44.046;23.014;2023-02-12T06:30:57;101842.66;;;11.14;34.58
42725;BME280;28369;44.046;23.014;2023-02-12T06:33:23;102033.06;;;11.95;34.53
42725;BME280;28369;44.046;23.014;2023-02-12T06:35:49;102216.22;;;13.32;34.51
42725;BME280;28369;44.046;23.014;2023-02-12T06:38:14;102368.28;;;14.25;34.89
42725;BME280;28369;44.046;23.014;2023-02-12T06:40:40;102249.53;;;13.35;34.87
42725;BME280;28369;44.046;23.014;2023-02-12T06:43:06;102013.44;;;12.25;34.73
42725;BME280;28369;44.046;23.014;2023-02-12T06:45:33;101918.75;;;11.17;35.05
42725;BME280;28369;44.046;23.014;2023-02-12T06:47:58;101859.59;;;11.10;35.12
42725;BME280;28369;44.046;23.014;2023-02-12T06:50:24;102075.03;;;12.50;35.38
42725;BME280;28369;44.046;23.014;2023-02-12T06:52:50;102356.06;;;14.60;34.77
42725;BME280;28369;44.046;23.014;2023-02-12T06:55:16;101932.44;;;11.88;34.87
42725;BME280;28369;44.046;23.014;2023-02-12T06:57:42;101943.94;;;12.13;34.54
42725;BME280;28369;44.046;23.014;2023-02-12T07:00:08;102431.72;;;14.99;35.28
42725;BME280;28369;44.046;23.014;2023-02-12T07:02:34;102115.25;;;12.66;35.86
42725;BME280;28369;44.046;23.014;2023-02-12T07:05:00;101944.00;;;11.47;35.93
42725;BME280;28369;44.046;23.014;2023-02-12T07:07:26;102168.97;;;12.78;36.07
42725;BME280;28369;44.046;23.014;2023-02-12T07:09:52;101918.13;;;11.80;35.02
42725;BME280;28369;44.046;23.014;2023-02-12T07:12:17;102438.50;;;15.03;35.33
42725;BME280;28369;44.046;23.014;2023-02-12T07:14:43;102448.84;;;15.07;35.44
42725;BME280;28369;44.046;23.014;2023-02-12T07:17:09;102452.31;;;15.31;34.87
42725;BME280;28369;44.046;23.014;2023-02-12T07:19:35;101988.53;;;12.42;34.91
42725;BME280;28369;44.046;23.014;2023-02-12T07:22:01;102069.09;;;12.85;34.97
42725;BME280;28369;44.046;23.014;2023-02-12T07:24:27;102117.94;;;13.40;34.73
42725;BME280;28369;44.046;23.014;2023-02-12T07:26:53;101954.09;;;12.19;34.51
42725;BME280;28369;44.046;23.014;2023-02-12T07:29:19;101991.44;;;13.00;34.36
42725;BME280;28369;44.046;23.014;2023-02-12T07:31:44;102505.50;;;15.88;34.53
42725;BME280;28369;44.046;23.014;2023-02-12T07:34:10;102344.13;;;14.78;34.60
42725;BME280;28369;44.046;23.014;2023-02-12T07:36:36;102128.53;;;13.27;34.93
42725;BME280;28369;44.046;23.014;2023-02-12T07:39:02;102503.91;;;15.50;35.04
42725;BME280;28369;44.046;23.014;2023-02-12T07:41:31;102006.91;;;12.31;35.00
42725;BME280;28369;44.046;23.014;2023-02-12T07:44:02;101996.66;;;12.52;34.90
42725;BME280;28369;44.046;23.014;2023-02-12T07:49:20;102094.44;;;12.23;35.72
42725;BME280;28369;44.046;23.014;2023-02-12T07:51:47;102527.06;;;15.24;35.69
42725;BME280;28369;44.046;23.014;2023-02-12T07:54:14;102485.22;;;15.87;34.45
42725;BME280;28369;44.046;23.014;2023-02-12T07:56:41;102020.53;;;12.74;34.76
42725;BME280;28369;44.046;23.014;2023-02-12T07:59:09;101993.91;;;12.53;35.01
42725;BME280;28369;44.046;23.014;2023-02-12T08:01:37;102000.28;;;13.12;34.73
42725;BME280;28369;44.046;23.014;2023-02-12T08:04:10;102290.72;;;14.49;35.21
42725;BME280;28369;44.046;23.014;2023-02-12T08:06:39;102304.28;;;15.61;34.11
42725;BME280;28369;44.046;23.014;2023-02-12T08:09:07;102057.34;;;14.32;33.57
42725;BME280;28369;44.046;23.014;2023-02-12T08:11:34;102075.56;;;14.02;33.72
42725;BME280;28369;44.046;23.014;2023-02-12T08:14:00;102052.53;;;14.26;33.56
42725;BME280;28369;44.046;23.014;2023-02-12T08:16:27;102452.09;;;16.04;34.78
42725;BME280;28369;44.046;23.014;2023-02-12T08:18:54;102222.13;;;14.81;34.42
42725;BME280;28369;44.046;23.014;2023-02-12T08:21:25;102021.56;;;12.98;35.46
42725;BME280;28369;44.046;23.014;2023-02-12T08:23:53;102020.19;;;12.42;36.10
42725;BME280;28369;44.046;23.014;2023-02-12T08:26:28;102063.53;;;12.12;37.00
42725;BME280;28369;44.046;23.014;2023-02-12T08:28:57;102072.47;;;11.97;37.41
42725;BME280;28369;44.046;23.014;2023-02-12T08:31:27;101989.75;;;11.59;37.26
42725;BME280;28369;44.046;23.014;2023-02-12T08:33:56;102018.75;;;11.32;38.31
42725;BME280;28369;44.046;23.014;2023-02-12T08:36:24;102370.09;;;13.62;38.51
42725;BME280;28369;44.046;23.014;2023-02-12T08:38:51;102563.19;;;15.00;37.58
42725;BME280;28369;44.046;23.014;2023-02-12T08:41:22;102038.00;;;11.59;38.25
42725;BME280;28369;44.046;23.014;2023-02-12T08:43:48;102116.06;;;12.28;37.63
42725;BME280;28369;44.046;23.014;2023-02-12T08:46:23;102068.91;;;11.98;37.96
42725;BME280;28369;44.046;23.014;2023-02-12T09:13:24;102064.38;;;9.72;42.50
42725;BME280;28369;44.046;23.014;2023-02-12T09:15:52;102063.88;;;9.96;41.51
42725;BME280;28369;44.046;23.014;2023-02-12T09:18:18;102059.31;;;9.99;42.05
42725;BME280;28369;44.046;23.014;2023-02-12T09:20:44;102059.91;;;10.05;41.52
42725;BME280;28369;44.046;23.014;2023-02-12T09:23:12;102073.31;;;9.84;42.07
42725;BME280;28369;44.046;23.014;2023-02-12T09:25:40;102097.06;;;10.13;41.73
42725;BME280;28369;44.046;23.014;2023-02-12T09:28:05;102046.28;;;9.67;42.11
42725;BME280;28369;44.046;23.014;2023-02-12T09:35:39;102036.44;;;9.71;41.59
42725;BME280;28369;44.046;23.014;2023-02-12T09:38:06;102051.31;;;10.01;41.42
42725;BME280;28369;44.046;23.014;2023-02-12T09:50:42;102116.88;;;11.06;41.01
42725;BME280;28369;44.046;23.014;2023-02-12T09:53:17;102084.47;;;10.63;40.62
42725;BME280;28369;44.046;23.014;2023-02-12T09:55:47;102084.19;;;10.82;39.22
42725;BME280;28369;44.046;23.014;2023-02-12T10:00:45;102082.31;;;10.84;39.32
42725;BME280;28369;44.046;23.014;2023-02-12T10:03:17;102487.50;;;13.45;38.27
42725;BME280;28369;44.046;23.014;2023-02-12T10:05:46;102638.94;;;14.90;35.44
42725;BME280;28369;44.046;23.014;2023-02-12T10:13:50;102626.25;;;14.57;37.16
42725;BME280;28369;44.046;23.014;2023-02-12T10:16:48;102627.31;;;15.30;36.17
42725;BME280;28369;44.046;23.014;2023-02-12T10:20:01;102627.41;;;14.27;34.50
42725;BME280;28369;44.046;23.014;2023-02-12T10:22:45;102624.56;;;14.68;34.73
42725;BME280;28369;44.046;23.014;2023-02-12T10:27:59;102094.84;;;11.22;36.16
42725;BME280;28369;44.046;23.014;2023-02-12T10:30:48;102101.84;;;10.94;35.91
42725;BME280;28369;44.046;23.014;2023-02-12T10:33:30;102197.28;;;11.54;35.21
42725;BME280;28369;44.046;23.014;2023-02-12T10:44:00;102161.31;;;10.97;36.81
42725;BME280;28369;44.046;23.014;2023-02-12T10:46:29;102146.16;;;11.44;36.13
42725;BME280;28369;44.046;23.014;2023-02-12T10:48:58;102156.69;;;11.71;35.26
42725;BME280;28369;44.046;23.014;2023-02-12T10:51:38;102120.16;;;11.52;34.73
42725;BME280;28369;44.046;23.014;2023-02-12T10:57:39;102285.88;;;12.25;33.43
42725;BME280;28369;44.046;23.014;2023-02-12T11:07:03;102104.94;;;11.43;31.96
42725;BME280;28369;44.046;23.014;2023-02-12T11:09:41;102122.41;;;11.58;31.98
42725;BME280;28369;44.046;23.014;2023-02-12T11:12:34;102142.06;;;12.07;33.50
42725;BME280;28369;44.046;23.014;2023-02-12T11:15:06;102155.19;;;11.67;35.14
42725;BME280;28369;44.046;23.014;2023-02-12T11:17:39;102132.56;;;11.08;36.01
42725;BME280;28369;44.046;23.014;2023-02-12T11:22:57;102078.28;;;10.78;34.76
42725;BME280;28369;44.046;23.014;2023-02-12T11:25:38;102138.97;;;10.75;34.22
42725;BME280;28369;44.046;23.014;2023-02-12T11:28:19;102138.78;;;10.64;35.90
42725;BME280;28369;44.046;23.014;2023-02-12T11:30:57;102158.50;;;10.57;36.09
42725;BME280;28369;44.046;23.014;2023-02-12T11:36:19;102222.19;;;11.63;35.35
42725;BME280;28369;44.046;23.014;2023-02-12T11:43:52;102156.44;;;11.19;35.79
42725;BME280;28369;44.046;23.014;2023-02-12T11:46:24;102194.16;;;11.62;34.39
42725;BME280;28369;44.046;23.014;2023-02-12T11:48:51;102186.16;;;12.05;32.77
42725;BME280;28369;44.046;23.014;2023-02-12T11:51:37;102163.41;;;12.17;33.17
42725;BME280;28369;44.046;23.014;2023-02-12T11:54:03;102147.97;;;12.51;32.40
42725;BME280;28369;44.046;23.014;2023-02-12T12:06:06;102679.94;;;15.96;31.78
42725;BME280;28369;44.046;23.014;2023-02-12T12:12:09;102259.75;;;13.27;31.69
42725;BME280;28369;44.046;23.014;2023-02-12T12:34:10;102171.38;;;12.81;32.80
42725;BME280;28369;44.046;23.014;2023-02-12T13:45:34;102742.16;;;15.92;34.77
42725;BME280;28369;44.046;23.014;2023-02-12T13:57:15;102303.06;;;13.24;34.69
42725;BME280;28369;44.046;23.014;2023-02-12T14:03:08;102248.34;;;13.01;34.26
42725;BME280;28369;44.046;23.014;2023-02-12T14:09:10;102261.44;;;12.89;34.25
42725;BME280;28369;44.046;23.014;2023-02-12T14:23:51;102279.50;;;13.21;34.84
42725;BME280;28369;44.046;23.014;2023-02-12T14:26:22;102367.00;;;13.68;34.68
42725;BME280;28369;44.046;23.014;2023-02-12T14:34:45;102766.81;;;16.05;35.37
42725;BME280;28369;44.046;23.014;2023-02-12T14:53:30;102351.84;;;12.66;36.58
42725;BME280;28369;44.046;23.014;2023-02-12T14:59:43;102323.88;;;12.36;37.40
42725;BME280;28369;44.046;23.014;2023-02-12T15:06:02;102433.22;;;12.86;37.28
42725;BME280;28369;44.046;23.014;2023-02-12T15:12:15;102788.81;;;14.80;38.07
42725;BME280;28369;44.046;23.014;2023-02-12T15:24:45;102805.59;;;14.93;38.13
42725;BME280;28369;44.046;23.014;2023-02-12T15:27:16;102372.22;;;11.95;38.47
42725;BME280;28369;44.046;23.014;2023-02-12T15:36:21;102579.31;;;13.00;38.11
42725;BME280;28369;44.046;23.014;2023-02-12T15:38:51;102331.50;;;11.27;38.02
42725;BME280;28369;44.046;23.014;2023-02-12T16:05:31;102886.88;;;14.51;38.45
42725;BME280;28369;44.046;23.014;2023-02-12T16:07:59;102341.19;;;10.65;38.75
42725;BME280;28369;44.046;23.014;2023-02-12T16:10:46;102416.41;;;11.30;38.68
42725;BME280;28369;44.046;23.014;2023-02-12T16:16:40;102922.91;;;14.54;38.32
42725;BME280;28369;44.046;23.014;2023-02-12T16:19:22;102417.09;;;11.03;38.68
42725;BME280;28369;44.046;23.014;2023-02-12T16:22:07;102424.66;;;10.94;39.34
42725;BME280;28369;44.046;23.014;2023-02-12T16:24:52;102745.03;;;12.80;39.44
42725;BME280;28369;44.046;23.014;2023-02-12T16:27:23;102344.88;;;10.47;39.22
42725;BME280;28369;44.046;23.014;2023-02-12T16:35:21;102404.09;;;10.38;39.83
42725;BME280;28369;44.046;23.014;2023-02-12T16:51:34;102746.53;;;12.25;40.25
42725;BME280;28369;44.046;23.014;2023-02-12T16:54:30;102447.59;;;10.44;40.23
42725;BME280;28369;44.046;23.014;2023-02-12T17:00:22;102424.84;;;10.43;39.99
42725;BME280;28369;44.046;23.014;2023-02-12T17:13:03;102470.16;;;10.48;40.10
42725;BME280;28369;44.046;23.014;2023-02-12T17:16:03;102992.59;;;13.82;40.20
42725;BME280;28369;44.046;23.014;2023-02-12T17:18:29;102534.47;;;10.58;40.50
42725;BME280;28369;44.046;23.014;2023-02-12T17:21:13;102474.66;;;10.12;40.57
42725;BME280;28369;44.046;23.014;2023-02-12T17:23:59;102991.47;;;13.41;40.65
42725;BME280;28369;44.046;23.014;2023-02-12T17:26:24;102450.66;;;9.85;40.96
42725;BME280;28369;44.046;23.014;2023-02-12T17:28:50;102445.75;;;9.79;41.05
42725;BME280;28369;44.046;23.014;2023-02-12T17:31:17;102692.50;;;10.71;41.81
42725;BME280;28369;44.046;23.014;2023-02-12T17:33:50;102470.69;;;9.52;41.66
42725;BME280;28369;44.046;23.014;2023-02-12T17:39:19;102481.50;;;9.46;42.11
42725;BME280;28369;44.046;23.014;2023-02-12T17:41:46;102542.13;;;9.94;41.74
42725;BME280;28369;44.046;23.014;2023-02-12T17:44:13;102521.38;;;9.55;41.56
42725;BME280;28369;44.046;23.014;2023-02-12T17:46:40;102483.53;;;9.76;41.49
42725;BME280;28369;44.046;23.014;2023-02-12T17:49:07;102586.91;;;10.10;41.74
42725;BME280;28369;44.046;23.014;2023-02-12T17:51:36;102470.53;;;9.56;41.96
42725;BME280;28369;44.046;23.014;2023-02-12T17:57:22;102440.50;;;9.26;42.06
42725;BME280;28369;44.046;23.014;2023-02-12T17:59:48;102472.00;;;9.44;42.12
42725;BME280;28369;44.046;23.014;2023-02-12T18:02:22;102837.44;;;11.52;42.32
42725;BME280;28369;44.046;23.014;2023-02-12T18:08:15;102541.91;;;9.64;42.99
42725;BME280;28369;44.046;23.014;2023-02-12T18:14:05;102483.22;;;8.93;43.52
42725;BME280;28369;44.046;23.014;2023-02-12T18:19:53;102508.09;;;8.85;43.38
42725;BME280;28369;44.046;23.014;2023-02-12T18:25:47;102418.88;;;8.48;44.43
42725;BME280;28369;44.046;23.014;2023-02-12T18:31:46;102463.75;;;8.61;44.63
42725;BME280;28369;44.046;23.014;2023-02-12T18:34:11;102477.00;;;8.58;45.02
42725;BME280;28369;44.046;23.014;2023-02-12T18:36:37;102470.69;;;8.03;45.37
42725;BME280;28369;44.046;23.014;2023-02-12T18:39:04;102480.19;;;8.25;45.18
42725;BME280;28369;44.046;23.014;2023-02-12T18:41:31;102522.25;;;8.61;44.90
42725;BME280;28369;44.046;23.014;2023-02-12T18:43:58;102490.53;;;8.28;45.09
42725;BME280;28369;44.046;23.014;2023-02-12T18:46:26;102985.72;;;11.37;44.92
42725;BME280;28369;44.046;23.014;2023-02-12T18:48:52;102494.38;;;8.40;45.09
42725;BME280;28369;44.046;23.014;2023-02-12T18:51:27;102556.00;;;9.07;44.56
42725;BME280;28369;44.046;23.014;2023-02-12T18:57:15;102509.59;;;8.52;44.62
42725;BME280;28369;44.046;23.014;2023-02-12T19:03:03;102495.84;;;8.66;44.51
42725;BME280;28369;44.046;23.014;2023-02-12T19:08:59;102498.41;;;8.28;44.44
42725;BME280;28369;44.046;23.014;2023-02-12T19:18:16;102804.06;;;9.35;45.83
42725;BME280;28369;44.046;23.014;2023-02-12T19:20:49;102532.81;;;7.79;46.15
42725;BME280;28369;44.046;23.014;2023-02-12T19:23:14;102459.41;;;7.17;46.79
42725;BME280;28369;44.046;23.014;2023-02-12T19:25:40;102802.94;;;8.58;47.66
42725;BME280;28369;44.046;23.014;2023-02-12T19:28:09;102564.09;;;6.94;48.72
42725;BME280;28369;44.046;23.014;2023-02-12T19:30:36;102517.66;;;6.54;49.32
42725;BME280;28369;44.046;23.014;2023-02-12T19:33:21;102534.94;;;7.26;48.02
42725;BME280;28369;44.046;23.014;2023-02-12T19:35:49;102525.88;;;6.18;49.76
42725;BME280;28369;44.046;23.014;2023-02-12T19:38:15;102521.44;;;6.69;49.42
42725;BME280;28369;44.046;23.014;2023-02-12T19:40:43;102618.66;;;7.03;49.80
42725;BME280;28369;44.046;23.014;2023-02-12T19:43:08;102668.31;;;7.28;49.98
42725;BME280;28369;44.046;23.014;2023-02-12T19:55:55;102628.09;;;7.31;50.39
42725;BME280;28369;44.046;23.014;2023-02-12T19:58:21;102528.00;;;6.80;50.19